Time;durP1;ratioP1;P1;durP2;ratioP2;P2;SDS_P1;SDS_P2;PMS_P1;PMS_P2;Temp;Humidity;BMP_temperature;BMP_pressure;BME280_temperature;BME280_humidity;BME280_pressure;Samples;Min_cycle;Max_cycle;Signal;HPM_P1;HPM_P2
2021/09/22 00:02:13;;;;;;;39.65;24.63;;;;;;;;;;791025;175;919916;-60
2021/09/22 00:04:38;;;;;;;44.10;26.53;;;;;;;;;;779574;176;920269;-61
2021/09/22 00:07:04;;;;;;;52.70;28.00;;;;;;;;;;795712;174;919549;-60
2021/09/22 00:09:30;;;;;;;44.03;27.90;;;;;;;;;;794928;174;919416;-60
2021/09/22 00:11:56;;;;;;;43.53;30.10;;;;;;;;;;795818;175;919112;-60
2021/09/22 00:14:22;;;;;;;51.10;28.90;;;;;;;;;;791948;175;919528;-62
2021/09/22 00:16:48;;;;;;;43.07;26.73;;;;;;;;;;793911;175;919404;-60
2021/09/22 00:19:14;;;;;;;46.27;28.47;;;;;;;;;;798225;174;897394;-60
2021/09/22 00:21:39;;;;;;;41.63;26.77;;;;;;;;;;789128;175;918991;-60
2021/09/22 00:24:05;;;;;;;42.93;28.53;;;;;;;;;;787640;175;918886;-60
2021/09/22 00:26:31;;;;;;;46.93;28.43;;;;;;;;;;793296;175;919290;-59
2021/09/22 00:28:57;;;;;;;62.87;34.03;;;;;;;;;;782775;175;919967;-59
2021/09/22 00:31:23;;;;;;;75.50;42.97;;;;;;;;;;788525;174;1021398;-59
2021/09/22 00:33:49;;;;;;;71.07;39.10;;;;;;;;;;790592;174;931436;-60
2021/09/22 00:36:14;;;;;;;71.87;42.17;;;;;;;;;;796943;174;918436;-60
2021/09/22 00:38:40;;;;;;;74.80;42.20;;;;;;;;;;784762;175;919374;-59
2021/09/22 00:41:06;;;;;;;78.07;41.50;;;;;;;;;;786814;175;918848;-59
2021/09/22 00:43:32;;;;;;;71.75;41.15;;;;;;;;;;796800;175;919277;-60
2021/09/22 00:46:04;;;;;;;58.10;35.00;;;;;;;;;;789753;175;919404;-59
2021/09/22 00:48:26;;;;;;;62.38;34.22;;;;;;;;;;792339;174;918763;-59
2021/09/22 00:50:50;;;;;;;59.83;31.07;;;;;;;;;;797592;175;919575;-59
2021/09/22 00:53:16;;;;;;;53.80;30.70;;;;;;;;;;788449;175;918612;-59
2021/09/22 00:55:42;;;;;;;47.57;27.87;;;;;;;;;;791290;175;919257;-60
2021/09/22 00:58:08;;;;;;;51.47;27.47;;;;;;;;;;792397;175;919671;-59
2021/09/22 01:00:37;;;;;;;52.50;29.53;;;;;;;;;;777768;178;919076;-59
2021/09/22 01:02:59;;;;;;;48.50;27.80;;;;;;;;;;758467;183;919668;-60
2021/09/22 01:05:25;;;;;;;45.33;27.70;;;;;;;;;;774998;177;921319;-59
2021/09/22 01:07:51;;;;;;;41.17;27.27;;;;;;;;;;779857;177;912307;-60
2021/09/22 01:10:17;;;;;;;44.10;26.93;;;;;;;;;;764534;180;614875;-60
2021/09/22 01:12:43;;;;;;;42.37;26.90;;;;;;;;;;770637;178;919206;-60
2021/09/22 01:15:09;;;;;;;43.37;26.33;;;;;;;;;;774366;179;919379;-59
2021/09/22 01:17:35;;;;;;;43.57;25.87;;;;;;;;;;769854;179;919579;-61
2021/09/22 01:20:01;;;;;;;41.63;25.20;;;;;;;;;;770388;179;920051;-59
2021/09/22 01:22:27;;;;;;;35.65;21.50;;;;;;;;;;774414;179;919757;-60
2021/09/22 01:24:53;;;;;;;38.53;23.73;;;;;;;;;;767048;179;919054;-60
2021/09/22 01:27:19;;;;;;;33.43;22.33;;;;;;;;;;764767;180;919800;-62
2021/09/22 01:29:45;;;;;;;36.93;22.23;;;;;;;;;;792629;174;920364;-60
2021/09/22 01:32:11;;;;;;;32.57;21.27;;;;;;;;;;796128;174;918457;-60
2021/09/22 01:34:37;;;;;;;37.33;21.85;;;;;;;;;;766560;179;1056315;-59
2021/09/22 01:37:03;;;;;;;31.10;19.80;;;;;;;;;;777363;178;917085;-60
2021/09/22 01:39:29;;;;;;;33.43;21.23;;;;;;;;;;782042;178;916060;-60
2021/09/22 01:41:54;;;;;;;35.25;21.17;;;;;;;;;;782330;177;919455;-60
2021/09/22 01:44:20;;;;;;;37.00;20.40;;;;;;;;;;777944;176;919922;-60
2021/09/22 01:46:46;;;;;;;35.50;22.03;;;;;;;;;;776210;179;918146;-60
2021/09/22 01:49:12;;;;;;;31.50;17.97;;;;;;;;;;770306;179;919503;-60
2021/09/22 01:51:38;;;;;;;32.57;20.37;;;;;;;;;;767484;179;919550;-59
2021/09/22 01:54:04;;;;;;;32.30;19.37;;;;;;;;;;770617;179;1021209;-59
2021/09/22 01:56:29;;;;;;;32.17;19.67;;;;;;;;;;772677;179;918417;-59
2021/09/22 01:58:55;;;;;;;27.07;17.87;;;;;;;;;;772155;179;919335;-60
2021/09/22 02:01:21;;;;;;;29.43;19.40;;;;;;;;;;776417;177;918763;-60
2021/09/22 02:03:48;;;;;;;34.60;20.10;;;;;;;;;;771131;179;906749;-60
2021/09/22 02:06:15;;;;;;;32.60;19.10;;;;;;;;;;753926;183;918875;-60
2021/09/22 02:08:40;;;;;;;36.93;21.17;;;;;;;;;;770349;179;919026;-59
2021/09/22 02:11:06;;;;;;;31.17;18.13;;;;;;;;;;771276;180;924338;-59
2021/09/22 02:13:32;;;;;;;42.17;22.10;;;;;;;;;;771849;180;919410;-60
2021/09/22 02:15:58;;;;;;;34.50;20.90;;;;;;;;;;774049;180;918816;-59
2021/09/22 02:18:24;;;;;;;34.83;21.77;;;;;;;;;;763515;179;919789;-60
2021/09/22 02:20:49;;;;;;;33.00;19.77;;;;;;;;;;767929;179;919243;-60
2021/09/22 02:23:15;;;;;;;40.27;22.83;;;;;;;;;;777350;178;919722;-60
2021/09/22 02:25:41;;;;;;;32.20;22.33;;;;;;;;;;769356;180;919543;-59
2021/09/22 02:28:07;;;;;;;34.20;21.83;;;;;;;;;;782692;176;920214;-59
2021/09/22 02:30:33;;;;;;;42.73;22.60;;;;;;;;;;770424;180;622159;-60
2021/09/22 02:32:59;;;;;;;41.27;22.63;;;;;;;;;;786894;177;625536;-59
2021/09/22 02:35:24;;;;;;;42.13;24.03;;;;;;;;;;786795;178;918863;-60
2021/09/22 02:37:50;;;;;;;37.67;21.77;;;;;;;;;;778315;177;632260;-59
2021/09/22 02:40:17;;;;;;;34.63;22.63;;;;;;;;;;781361;177;636026;-59
2021/09/22 02:42:42;;;;;;;37.33;22.30;;;;;;;;;;771772;179;627050;-61
2021/09/22 02:45:08;;;;;;;41.77;21.70;;;;;;;;;;769869;180;630248;-60
2021/09/22 02:47:34;;;;;;;37.30;22.77;;;;;;;;;;773972;180;628055;-60
2021/09/22 02:50:00;;;;;;;43.67;24.70;;;;;;;;;;779631;178;918330;-60
2021/09/22 02:52:26;;;;;;;40.17;25.33;;;;;;;;;;768163;182;920096;-60
2021/09/22 02:54:51;;;;;;;45.20;24.80;;;;;;;;;;767296;179;919732;-59
2021/09/22 02:57:17;;;;;;;45.05;26.20;;;;;;;;;;777907;178;919224;-60
2021/09/22 02:59:43;;;;;;;52.80;26.70;;;;;;;;;;784818;178;1020384;-60
2021/09/22 03:02:09;;;;;;;43.33;26.07;;;;;;;;;;763192;182;919449;-60
2021/09/22 03:04:35;;;;;;;50.40;28.40;;;;;;;;;;765226;181;919458;-60
2021/09/22 03:07:01;;;;;;;52.37;28.63;;;;;;;;;;785161;178;915354;-61
2021/09/22 03:09:27;;;;;;;46.50;26.93;;;;;;;;;;777991;178;919195;-61
2021/09/22 03:11:52;;;;;;;46.83;27.83;;;;;;;;;;760549;182;920031;-61
2021/09/22 03:14:18;;;;;;;46.83;26.03;;;;;;;;;;783175;177;923853;-60
2021/09/22 03:16:44;;;;;;;47.90;28.00;;;;;;;;;;793480;175;917011;-60
2021/09/22 03:19:10;;;;;;;55.30;27.60;;;;;;;;;;791474;175;916835;-60
2021/09/22 03:21:36;;;;;;;46.27;27.47;;;;;;;;;;791887;175;920333;-60
2021/09/22 03:24:02;;;;;;;48.07;27.03;;;;;;;;;;793401;175;915107;-60
2021/09/22 03:26:28;;;;;;;48.90;27.58;;;;;;;;;;780351;175;919920;-60
2021/09/22 03:28:53;;;;;;;45.33;26.80;;;;;;;;;;789334;175;920648;-60
2021/09/22 03:31:19;;;;;;;44.57;27.07;;;;;;;;;;793143;175;918775;-60
2021/09/22 03:33:45;;;;;;;65.90;30.23;;;;;;;;;;782519;174;912281;-60
2021/09/22 03:36:11;;;;;;;47.73;28.57;;;;;;;;;;790510;174;916595;-60
2021/09/22 03:38:37;;;;;;;52.73;27.83;;;;;;;;;;793308;175;917436;-59
2021/09/22 03:41:03;;;;;;;49.83;29.50;;;;;;;;;;791249;175;2148144;-61
2021/09/22 03:43:28;;;;;;;50.47;28.23;;;;;;;;;;792450;174;919152;-61
2021/09/22 03:45:54;;;;;;;46.77;25.90;;;;;;;;;;793792;174;918856;-60
2021/09/22 03:48:20;;;;;;;41.10;24.13;;;;;;;;;;790502;175;919210;-61
2021/09/22 03:50:48;;;;;;;46.07;26.77;;;;;;;;;;763896;182;919024;-60
2021/09/22 03:53:15;;;;;;;47.63;27.20;;;;;;;;;;787063;176;919269;-61
2021/09/22 03:55:38;;;;;;;47.87;26.03;;;;;;;;;;780664;178;919418;-61
2021/09/22 03:58:04;;;;;;;47.87;26.67;;;;;;;;;;782232;178;919109;-61
2021/09/22 04:00:30;;;;;;;44.83;25.57;;;;;;;;;;779315;178;918497;-61
2021/09/22 04:02:55;;;;;;;44.90;25.97;;;;;;;;;;778868;175;918887;-60
2021/09/22 04:05:21;;;;;;;46.80;26.80;;;;;;;;;;779641;178;919090;-60
2021/09/22 04:07:47;;;;;;;47.23;25.57;;;;;;;;;;789080;175;918997;-61
2021/09/22 04:10:13;;;;;;;49.13;27.40;;;;;;;;;;788497;175;918966;-60
2021/09/22 04:12:39;;;;;;;53.97;28.57;;;;;;;;;;793125;174;919068;-62
2021/09/22 04:15:05;;;;;;;46.67;26.30;;;;;;;;;;791192;174;921722;-63
2021/09/22 04:17:31;;;;;;;45.87;27.37;;;;;;;;;;789613;175;919835;-61
2021/09/22 04:19:57;;;;;;;57.40;30.47;;;;;;;;;;797153;175;919058;-60
2021/09/22 04:22:23;;;;;;;58.63;31.80;;;;;;;;;;790138;174;919203;-60
2021/09/22 04:24:49;;;;;;;54.93;29.90;;;;;;;;;;786261;175;923222;-60
2021/09/22 04:27:14;;;;;;;53.63;28.47;;;;;;;;;;793029;175;918651;-61
2021/09/22 04:29:42;;;;;;;62.70;30.70;;;;;;;;;;793740;175;919225;-60
2021/09/22 04:32:06;;;;;;;47.50;27.57;;;;;;;;;;787213;175;1697564;-60
2021/09/22 04:34:32;;;;;;;48.00;27.80;;;;;;;;;;791670;175;919463;-61
2021/09/22 04:36:58;;;;;;;42.07;25.53;;;;;;;;;;790241;175;918491;-60
2021/09/22 04:39:24;;;;;;;40.90;23.57;;;;;;;;;;785808;175;919644;-59
2021/09/22 04:41:49;;;;;;;42.10;25.70;;;;;;;;;;788397;175;919137;-61
2021/09/22 04:44:15;;;;;;;43.23;24.77;;;;;;;;;;784120;178;623888;-61
2021/09/22 04:46:41;;;;;;;43.07;23.80;;;;;;;;;;776598;178;627877;-60
2021/09/22 04:49:07;;;;;;;41.07;25.83;;;;;;;;;;764214;182;617298;-60
2021/09/22 04:51:33;;;;;;;42.43;24.30;;;;;;;;;;788658;175;917942;-60
2021/09/22 04:53:59;;;;;;;51.23;25.73;;;;;;;;;;784626;175;635411;-60
2021/09/22 04:56:25;;;;;;;54.63;28.20;;;;;;;;;;794523;175;918789;-60
2021/09/22 04:58:50;;;;;;;46.47;26.67;;;;;;;;;;793425;175;919090;-60
2021/09/22 05:01:16;;;;;;;55.77;28.33;;;;;;;;;;775719;176;917616;-60
2021/09/22 05:03:42;;;;;;;49.93;29.70;;;;;;;;;;772093;177;918984;-59
2021/09/22 05:06:08;;;;;;;45.63;27.70;;;;;;;;;;763665;180;919758;-60
2021/09/22 05:08:34;;;;;;;46.57;26.00;;;;;;;;;;777220;180;1014514;-60
2021/09/22 05:11:00;;;;;;;45.05;26.17;;;;;;;;;;764794;180;918765;-59
2021/09/22 05:13:25;;;;;;;52.90;26.13;;;;;;;;;;762903;180;918923;-61
2021/09/22 05:15:51;;;;;;;51.20;29.07;;;;;;;;;;761674;184;919799;-60
2021/09/22 05:18:17;;;;;;;52.63;27.63;;;;;;;;;;761617;180;919240;-60
2021/09/22 05:20:43;;;;;;;63.17;32.90;;;;;;;;;;760950;180;920108;-60
2021/09/22 05:23:09;;;;;;;57.90;31.40;;;;;;;;;;769775;176;928241;-60
2021/09/22 05:25:35;;;;;;;51.37;30.37;;;;;;;;;;756941;180;919831;-60
2021/09/22 05:28:01;;;;;;;50.80;28.23;;;;;;;;;;760756;180;919788;-60
2021/09/22 05:30:26;;;;;;;47.78;27.17;;;;;;;;;;761686;180;919784;-61
2021/09/22 05:32:52;;;;;;;37.17;23.40;;;;;;;;;;773021;180;919433;-61
2021/09/22 05:35:18;;;;;;;36.37;22.70;;;;;;;;;;762768;180;919593;-61
2021/09/22 05:37:44;;;;;;;46.33;24.77;;;;;;;;;;767654;180;919412;-61
2021/09/22 05:40:10;;;;;;;38.17;22.67;;;;;;;;;;762840;180;936605;-63
2021/09/22 05:42:36;;;;;;;40.60;23.43;;;;;;;;;;760852;180;919317;-61
2021/09/22 05:45:02;;;;;;;37.30;21.00;;;;;;;;;;779806;175;1021190;-61
2021/09/22 05:47:27;;;;;;;38.43;24.10;;;;;;;;;;786558;178;918457;-61
2021/09/22 05:49:53;;;;;;;41.30;24.07;;;;;;;;;;785143;176;920107;-61
2021/09/22 05:52:21;;;;;;;39.63;22.60;;;;;;;;;;755473;182;919729;-63
2021/09/22 05:54:45;;;;;;;42.87;23.40;;;;;;;;;;773879;179;919617;-62
2021/09/22 05:57:11;;;;;;;37.83;24.40;;;;;;;;;;796229;175;918819;-60
2021/09/22 05:59:37;;;;;;;40.60;25.03;;;;;;;;;;779274;177;919383;-60
2021/09/22 06:02:02;;;;;;;48.03;23.53;;;;;;;;;;776759;175;918520;-60
2021/09/22 06:04:28;;;;;;;39.60;24.83;;;;;;;;;;775526;180;918905;-60
2021/09/22 06:06:54;;;;;;;43.63;24.13;;;;;;;;;;772959;179;713731;-61
2021/09/22 06:09:20;;;;;;;40.40;21.87;;;;;;;;;;770968;179;919556;-60
2021/09/22 06:11:46;;;;;;;44.00;22.17;;;;;;;;;;773441;179;919415;-61
2021/09/22 06:14:12;;;;;;;42.20;21.50;;;;;;;;;;761717;180;930463;-60
2021/09/22 06:16:38;;;;;;;35.27;20.57;;;;;;;;;;775095;176;918724;-61
2021/09/22 06:19:06;;;;;;;34.67;22.03;;;;;;;;;;779737;177;918472;-60
2021/09/22 06:21:29;;;;;;;39.35;22.62;;;;;;;;;;776361;179;921557;-61
2021/09/22 06:23:55;;;;;;;35.17;19.73;;;;;;;;;;779992;175;920667;-61
2021/09/22 06:26:21;;;;;;;30.53;18.80;;;;;;;;;;777698;178;919650;-60
2021/09/22 06:28:47;;;;;;;38.57;19.70;;;;;;;;;;787899;177;916108;-60
2021/09/22 06:31:13;;;;;;;35.50;20.33;;;;;;;;;;776007;177;925417;-60
2021/09/22 06:33:38;;;;;;;33.75;18.48;;;;;;;;;;770030;177;916513;-59
2021/09/22 06:36:04;;;;;;;35.73;20.17;;;;;;;;;;768065;179;914213;-60
2021/09/22 06:38:30;;;;;;;27.27;17.55;;;;;;;;;;767862;179;915145;-60
2021/09/22 06:40:56;;;;;;;30.63;18.70;;;;;;;;;;772992;179;918372;-60
2021/09/22 06:43:23;;;;;;;33.13;19.05;;;;;;;;;;777002;179;919248;-60
2021/09/22 06:45:49;;;;;;;33.73;20.50;;;;;;;;;;766326;179;920174;-61
2021/09/22 06:48:16;;;;;;;36.80;22.73;;;;;;;;;;777145;178;919262;-61
2021/09/22 06:50:40;;;;;;;59.22;39.58;;;;;;;;;;772176;179;919558;-60
2021/09/22 06:53:06;;;;;;;39.43;25.27;;;;;;;;;;778401;179;918450;-60
2021/09/22 06:55:32;;;;;;;31.77;17.33;;;;;;;;;;772166;179;918920;-60
2021/09/22 06:57:58;;;;;;;29.67;21.63;;;;;;;;;;769894;179;918926;-61
2021/09/22 07:00:24;;;;;;;25.77;18.33;;;;;;;;;;782258;176;919345;-62
2021/09/22 07:02:50;;;;;;;32.40;19.20;;;;;;;;;;780144;178;919157;-60
2021/09/22 07:05:16;;;;;;;31.10;19.20;;;;;;;;;;781838;178;916888;-63
2021/09/22 07:07:46;;;;;;;26.90;18.80;;;;;;;;;;783136;176;919019;-59
2021/09/22 07:10:08;;;;;;;30.03;18.50;;;;;;;;;;775842;179;919258;-60
2021/09/22 07:12:34;;;;;;;28.37;19.63;;;;;;;;;;784132;178;919514;-59
2021/09/22 07:14:59;;;;;;;33.20;19.80;;;;;;;;;;776525;178;919294;-60
2021/09/22 07:17:25;;;;;;;33.23;19.60;;;;;;;;;;782365;177;919212;-59
2021/09/22 07:19:51;;;;;;;34.23;21.10;;;;;;;;;;778057;178;919220;-60
2021/09/22 07:22:17;;;;;;;32.77;21.47;;;;;;;;;;779492;178;920385;-59
2021/09/22 07:24:43;;;;;;;29.27;19.17;;;;;;;;;;786487;175;920111;-59
2021/09/22 07:27:09;;;;;;;28.57;17.77;;;;;;;;;;782367;175;918789;-59
2021/09/22 07:29:34;;;;;;;24.87;14.53;;;;;;;;;;779453;178;1022055;-59
2021/09/22 07:32:00;;;;;;;23.00;15.10;;;;;;;;;;784796;178;918000;-59
2021/09/22 07:34:26;;;;;;;15.43;12.20;;;;;;;;;;779744;178;920766;-59
2021/09/22 07:36:52;;;;;;;15.70;10.70;;;;;;;;;;779944;178;922886;-59
2021/09/22 07:39:18;;;;;;;21.17;15.70;;;;;;;;;;772265;176;919544;-59
2021/09/22 07:41:44;;;;;;;21.23;12.90;;;;;;;;;;787763;176;918017;-59
2021/09/22 07:44:09;;;;;;;15.53;11.17;;;;;;;;;;775152;179;918376;-59
2021/09/22 07:46:35;;;;;;;14.65;10.30;;;;;;;;;;774949;180;919472;-59
2021/09/22 07:49:01;;;;;;;16.70;12.37;;;;;;;;;;769963;179;917201;-59
2021/09/22 07:51:27;;;;;;;16.90;10.70;;;;;;;;;;775660;177;918764;-59
2021/09/22 07:53:53;;;;;;;18.00;11.83;;;;;;;;;;770828;179;920690;-60
2021/09/22 07:56:19;;;;;;;14.40;11.23;;;;;;;;;;776924;179;920484;-60
2021/09/22 07:58:45;;;;;;;19.97;11.90;;;;;;;;;;780462;178;920282;-60
2021/09/22 08:01:12;;;;;;;18.10;12.17;;;;;;;;;;781016;178;922103;-59
2021/09/22 08:03:36;;;;;;;15.43;11.70;;;;;;;;;;781210;178;924098;-59
2021/09/22 08:06:02;;;;;;;22.53;19.60;;;;;;;;;;774133;181;901861;-59
2021/09/22 08:08:28;;;;;;;13.97;11.10;;;;;;;;;;776127;178;921941;-59
2021/09/22 08:10:54;;;;;;;12.52;9.60;;;;;;;;;;780315;175;920114;-59
2021/09/22 08:13:20;;;;;;;13.77;10.37;;;;;;;;;;793233;174;919286;-59
2021/09/22 08:15:45;;;;;;;15.20;11.47;;;;;;;;;;775576;179;916995;-60
2021/09/22 08:18:11;;;;;;;12.90;9.47;;;;;;;;;;751599;183;913763;-59
2021/09/22 08:20:37;;;;;;;13.60;9.67;;;;;;;;;;784585;177;918673;-59
2021/09/22 08:23:03;;;;;;;15.30;10.00;;;;;;;;;;780478;178;913875;-59
2021/09/22 08:25:29;;;;;;;12.97;7.23;;;;;;;;;;781263;175;970355;-60
2021/09/22 08:27:55;;;;;;;15.00;9.60;;;;;;;;;;789511;175;628952;-60
2021/09/22 08:30:21;;;;;;;11.50;7.60;;;;;;;;;;779481;178;915870;-61
2021/09/22 08:32:46;;;;;;;10.17;7.53;;;;;;;;;;788235;178;636825;-60
2021/09/22 08:35:12;;;;;;;8.60;6.00;;;;;;;;;;784217;175;911242;-60
2021/09/22 08:37:38;;;;;;;10.20;6.77;;;;;;;;;;786825;178;930718;-61
2021/09/22 08:40:05;;;;;;;9.33;6.40;;;;;;;;;;777161;177;919504;-62
2021/09/22 08:42:30;;;;;;;10.67;8.20;;;;;;;;;;786254;178;612497;-63
2021/09/22 08:44:57;;;;;;;6.97;5.20;;;;;;;;;;784388;178;610100;-62
2021/09/22 08:47:22;;;;;;;9.57;6.77;;;;;;;;;;781869;178;617208;-62
2021/09/22 08:49:49;;;;;;;8.90;3.60;;;;;;;;;;777327;178;918500;-61
2021/09/22 08:52:15;;;;;;;7.23;4.90;;;;;;;;;;782780;175;914723;-61
2021/09/22 08:54:41;;;;;;;6.63;3.53;;;;;;;;;;759437;182;919842;-60
2021/09/22 08:57:07;;;;;;;8.60;4.53;;;;;;;;;;774115;180;919994;-60
2021/09/22 08:59:32;;;;;;;7.30;5.00;;;;;;;;;;764225;181;927119;-60
2021/09/22 09:02:09;;;;;;;6.55;4.53;;;;;;;;;;768402;180;919630;-60
2021/09/22 09:04:34;;;;;;;5.67;4.30;;;;;;;;;;769169;180;918377;-61
2021/09/22 09:07:00;;;;;;;5.03;3.27;;;;;;;;;;763352;180;919750;-61
2021/09/22 09:09:31;;;;;;;7.60;4.23;;;;;;;;;;768677;179;919372;-60
2021/09/22 09:11:57;;;;;;;6.30;4.50;;;;;;;;;;787520;177;919085;-60
2021/09/22 09:14:23;;;;;;;10.37;6.10;;;;;;;;;;774047;180;920681;-62
2021/09/22 09:16:49;;;;;;;7.00;4.80;;;;;;;;;;778374;177;920465;-60
2021/09/22 09:19:14;;;;;;;5.20;4.03;;;;;;;;;;775221;179;919965;-60
2021/09/22 09:21:46;;;;;;;6.80;5.20;;;;;;;;;;776663;178;921118;-60
2021/09/22 09:24:12;;;;;;;6.60;4.73;;;;;;;;;;770275;177;1025174;-61
2021/09/22 09:26:37;;;;;;;7.00;4.90;;;;;;;;;;765714;180;918254;-60
2021/09/22 09:29:03;;;;;;;6.50;4.50;;;;;;;;;;779348;180;918782;-60
2021/09/22 09:31:29;;;;;;;4.23;2.50;;;;;;;;;;763124;180;919219;-61
2021/09/22 09:33:56;;;;;;;5.80;3.87;;;;;;;;;;769009;178;920591;-60
2021/09/22 09:36:42;;;;;;;4.13;2.70;;;;;;;;;;786804;175;919252;-61
2021/09/22 09:39:04;;;;;;;3.23;2.20;;;;;;;;;;766105;180;920453;-61
2021/09/22 09:41:30;;;;;;;6.73;3.90;;;;;;;;;;778825;175;915662;-61
2021/09/22 09:43:55;;;;;;;4.30;2.30;;;;;;;;;;770436;176;911521;-60
2021/09/22 09:46:22;;;;;;;3.15;2.22;;;;;;;;;;774055;178;1018846;-60
2021/09/22 09:48:53;;;;;;;4.10;2.07;;;;;;;;;;754388;182;1019276;-61
2021/09/22 09:51:19;;;;;;;5.17;2.40;;;;;;;;;;764005;180;919435;-60
2021/09/22 09:53:45;;;;;;;6.00;3.47;;;;;;;;;;760968;180;1021950;-60
2021/09/22 09:56:11;;;;;;;8.27;2.90;;;;;;;;;;773374;180;919639;-63
2021/09/22 09:58:40;;;;;;;6.13;3.37;;;;;;;;;;763876;181;919667;-62
2021/09/22 10:01:06;;;;;;;6.07;3.50;;;;;;;;;;767354;179;918298;-61
2021/09/22 10:03:32;;;;;;;5.43;3.23;;;;;;;;;;778151;176;920012;-61
2021/09/22 10:05:58;;;;;;;5.00;3.40;;;;;;;;;;775176;180;919424;-61
2021/09/22 10:08:25;;;;;;;6.67;4.30;;;;;;;;;;773013;180;918848;-61
2021/09/22 10:10:49;;;;;;;9.17;4.97;;;;;;;;;;774895;176;919295;-62
2021/09/22 10:13:15;;;;;;;6.33;4.50;;;;;;;;;;776721;177;919378;-60
2021/09/22 10:15:41;;;;;;;6.20;4.47;;;;;;;;;;771472;179;918667;-61
2021/09/22 10:18:07;;;;;;;6.30;4.50;;;;;;;;;;765345;179;928802;-61
2021/09/22 10:20:33;;;;;;;7.93;6.13;;;;;;;;;;767439;179;918612;-62
2021/09/22 10:22:59;;;;;;;6.70;4.23;;;;;;;;;;776749;179;919904;-61
2021/09/22 10:25:24;;;;;;;5.62;4.28;;;;;;;;;;780917;178;919247;-61
2021/09/22 10:27:50;;;;;;;5.50;4.20;;;;;;;;;;774680;179;919551;-60
2021/09/22 10:30:17;;;;;;;7.30;4.67;;;;;;;;;;774176;180;919791;-61
2021/09/22 10:32:42;;;;;;;5.43;4.40;;;;;;;;;;776796;178;920349;-61
2021/09/22 10:35:26;;;;;;;6.30;4.50;;;;;;;;;;763653;179;919303;-61
2021/09/22 10:37:54;;;;;;;7.77;5.33;;;;;;;;;;761127;180;920236;-61
2021/09/22 10:40:20;;;;;;;7.00;5.30;;;;;;;;;;773171;180;918702;-62
2021/09/22 10:42:46;;;;;;;5.83;4.93;;;;;;;;;;775036;179;919494;-61
2021/09/22 10:45:12;;;;;;;5.23;4.63;;;;;;;;;;773064;178;919215;-61
2021/09/22 10:47:38;;;;;;;11.40;7.10;;;;;;;;;;780395;180;919164;-61
2021/09/22 10:50:04;;;;;;;8.25;5.78;;;;;;;;;;775420;180;918613;-61
2021/09/22 10:52:35;;;;;;;10.93;6.70;;;;;;;;;;775939;179;919027;-60
2021/09/22 10:55:04;;;;;;;5.73;4.63;;;;;;;;;;778703;175;917478;-62
2021/09/22 10:57:30;;;;;;;5.87;4.20;;;;;;;;;;795943;175;919533;-61
2021/09/22 11:00:14;;;;;;;5.60;3.77;;;;;;;;;;773630;178;919176;-62
2021/09/22 11:02:44;;;;;;;4.70;3.50;;;;;;;;;;796291;174;919252;-61
2021/09/22 11:05:09;;;;;;;7.13;3.80;;;;;;;;;;783343;173;918614;-63
2021/09/22 11:07:40;;;;;;;4.77;4.00;;;;;;;;;;765376;180;917938;-63
2021/09/22 11:10:12;;;;;;;6.50;4.60;;;;;;;;;;763679;181;920215;-63
2021/09/22 11:12:38;;;;;;;7.53;4.83;;;;;;;;;;760468;182;923120;-62
2021/09/22 11:15:04;;;;;;;8.87;6.27;;;;;;;;;;780680;178;919970;-63
2021/09/22 11:17:31;;;;;;;11.77;6.30;;;;;;;;;;764461;180;923204;-64
2021/09/22 11:19:57;;;;;;;8.80;5.33;;;;;;;;;;772831;180;918469;-62
2021/09/22 11:22:23;;;;;;;23.27;11.30;;;;;;;;;;761414;180;917496;-62
2021/09/22 11:24:49;;;;;;;8.83;6.00;;;;;;;;;;769127;180;1023010;-63
2021/09/22 11:27:14;;;;;;;11.30;5.80;;;;;;;;;;775491;179;918517;-62
2021/09/22 11:29:40;;;;;;;7.87;5.67;;;;;;;;;;772654;179;918833;-61
2021/09/22 11:32:27;;;;;;;10.07;5.50;;;;;;;;;;774101;179;919714;-62
2021/09/22 11:34:52;;;;;;;7.73;4.70;;;;;;;;;;767607;179;918867;-62
2021/09/22 11:37:18;;;;;;;3.73;3.27;;;;;;;;;;768045;180;919743;-61
2021/09/22 11:39:44;;;;;;;5.10;4.10;;;;;;;;;;779017;176;1022504;-61
2021/09/22 11:42:10;;;;;;;5.77;3.93;;;;;;;;;;763692;179;919787;-61
2021/09/22 11:44:35;;;;;;;4.30;3.13;;;;;;;;;;782568;175;919365;-61
2021/09/22 11:47:01;;;;;;;7.37;3.83;;;;;;;;;;776050;179;918973;-60
2021/09/22 11:49:32;;;;;;;4.93;4.40;;;;;;;;;;766524;179;926339;-61
2021/09/22 11:52:03;;;;;;;7.63;3.23;;;;;;;;;;772167;179;917967;-60
2021/09/22 11:54:29;;;;;;;4.37;3.00;;;;;;;;;;769463;179;919008;-60
2021/09/22 11:57:00;;;;;;;3.67;2.40;;;;;;;;;;779749;178;905657;-61
2021/09/22 11:59:26;;;;;;;4.10;2.80;;;;;;;;;;784840;175;918332;-60
2021/09/22 12:01:54;;;;;;;4.50;3.20;;;;;;;;;;770953;180;919586;-61
2021/09/22 12:04:20;;;;;;;4.70;3.00;;;;;;;;;;774876;178;920191;-61
2021/09/22 12:06:45;;;;;;;4.77;3.33;;;;;;;;;;784527;178;913978;-60
2021/09/22 12:09:11;;;;;;;5.97;4.00;;;;;;;;;;776116;178;923831;-61
2021/09/22 12:11:37;;;;;;;6.43;3.60;;;;;;;;;;779707;175;919289;-60
2021/09/22 12:14:03;;;;;;;5.87;4.00;;;;;;;;;;784825;178;920156;-61
2021/09/22 12:16:29;;;;;;;8.63;6.23;;;;;;;;;;774586;180;918806;-60
2021/09/22 12:18:55;;;;;;;10.40;7.47;;;;;;;;;;764924;180;1023662;-61
2021/09/22 12:21:24;;;;;;;8.83;5.57;;;;;;;;;;776030;180;918536;-62
2021/09/22 12:23:50;;;;;;;10.47;6.63;;;;;;;;;;770364;179;920044;-62
2021/09/22 12:26:16;;;;;;;9.07;8.07;;;;;;;;;;767515;180;918597;-61
2021/09/22 12:28:42;;;;;;;10.00;6.28;;;;;;;;;;769563;179;918812;-61
2021/09/22 12:31:10;;;;;;;8.90;5.50;;;;;;;;;;775379;179;919854;-61
2021/09/22 12:33:36;;;;;;;9.50;7.70;;;;;;;;;;768831;179;918549;-61
2021/09/22 12:36:02;;;;;;;10.23;6.90;;;;;;;;;;773374;179;932780;-64
2021/09/22 12:38:28;;;;;;;10.97;6.70;;;;;;;;;;786607;176;918564;-61
2021/09/22 12:40:56;;;;;;;10.30;6.57;;;;;;;;;;768213;179;919548;-61
2021/09/22 12:43:23;;;;;;;11.00;7.50;;;;;;;;;;770338;175;1020051;-61
2021/09/22 12:45:49;;;;;;;10.47;7.50;;;;;;;;;;774205;177;924819;-59
2021/09/22 12:48:22;;;;;;;10.13;7.10;;;;;;;;;;787245;177;918812;-60
2021/09/22 12:50:47;;;;;;;12.43;7.20;;;;;;;;;;768209;179;920397;-61
2021/09/22 12:53:13;;;;;;;11.03;6.50;;;;;;;;;;771157;176;919613;-60
2021/09/22 12:55:39;;;;;;;9.70;7.50;;;;;;;;;;779722;177;918089;-61
2021/09/22 12:58:05;;;;;;;9.13;6.43;;;;;;;;;;763405;179;919568;-60
2021/09/22 13:00:32;;;;;;;10.30;7.35;;;;;;;;;;782474;178;919400;-64
2021/09/22 13:03:12;;;;;;;9.27;6.43;;;;;;;;;;772743;180;629707;-60
2021/09/22 13:05:39;;;;;;;10.60;8.95;;;;;;;;;;779066;178;918478;-61
2021/09/22 13:08:06;;;;;;;7.80;6.53;;;;;;;;;;786976;177;918565;-60
2021/09/22 13:10:32;;;;;;;9.17;7.27;;;;;;;;;;782510;178;919401;-60
2021/09/22 13:12:57;;;;;;;12.00;6.83;;;;;;;;;;783472;178;919783;-60
2021/09/22 13:15:23;;;;;;;9.57;6.20;;;;;;;;;;772640;178;918356;-60
2021/09/22 13:17:49;;;;;;;7.13;6.00;;;;;;;;;;767811;174;918630;-60
2021/09/22 13:20:15;;;;;;;8.37;6.47;;;;;;;;;;767081;179;623860;-62
2021/09/22 13:22:41;;;;;;;9.30;6.83;;;;;;;;;;787964;178;920787;-62
2021/09/22 13:25:07;;;;;;;8.70;7.07;;;;;;;;;;764439;181;918912;-61
2021/09/22 13:27:33;;;;;;;11.60;7.00;;;;;;;;;;784637;178;918247;-61
2021/09/22 13:29:59;;;;;;;7.90;5.60;;;;;;;;;;777300;175;921158;-61
2021/09/22 13:32:25;;;;;;;8.17;5.40;;;;;;;;;;774170;175;915827;-60
2021/09/22 13:34:57;;;;;;;5.70;4.60;;;;;;;;;;777066;175;920909;-62
2021/09/22 13:37:23;;;;;;;6.87;5.00;;;;;;;;;;781430;177;920480;-61
2021/09/22 13:39:49;;;;;;;10.55;7.85;;;;;;;;;;785480;177;917095;-61
2021/09/22 13:42:15;;;;;;;7.07;5.40;;;;;;;;;;779446;175;922098;-60
2021/09/22 13:44:41;;;;;;;7.17;5.37;;;;;;;;;;773947;179;919528;-61
2021/09/22 13:47:07;;;;;;;7.00;4.30;;;;;;;;;;777822;175;919560;-62
2021/09/22 13:49:33;;;;;;;6.70;4.97;;;;;;;;;;777275;178;919109;-60
2021/09/22 13:51:58;;;;;;;6.82;4.35;;;;;;;;;;777194;178;919417;-61
2021/09/22 13:54:24;;;;;;;8.40;5.53;;;;;;;;;;780842;174;918396;-61
2021/09/22 13:56:50;;;;;;;5.70;4.60;;;;;;;;;;776225;179;918421;-61
2021/09/22 13:59:16;;;;;;;10.40;5.30;;;;;;;;;;769164;179;918557;-62
2021/09/22 14:01:42;;;;;;;7.70;5.07;;;;;;;;;;773070;179;917946;-61
2021/09/22 14:04:08;;;;;;;8.20;5.00;;;;;;;;;;772217;179;919291;-62
2021/09/22 14:06:34;;;;;;;9.20;4.57;;;;;;;;;;780679;178;917100;-62
2021/09/22 14:08:59;;;;;;;7.20;5.53;;;;;;;;;;769792;179;625108;-61